createdAt,value
2022-09-10T00:01:54.505Z,100.00
2022-09-10T00:04:21.024Z,100.00
2022-09-10T00:06:47.645Z,100.00
2022-09-10T00:09:14.307Z,100.00
2022-09-10T00:11:41.830Z,100.00
2022-09-10T00:14:15.244Z,100.00
2022-09-10T00:16:42.196Z,100.00
2022-09-10T00:19:08.752Z,100.00
2022-09-10T00:21:35.788Z,100.00
2022-09-10T00:24:03.590Z,100.00
2022-09-10T00:26:35.394Z,100.00
2022-09-10T00:29:02.314Z,100.00
2022-09-10T00:31:30.598Z,100.00
2022-09-10T00:33:58.605Z,100.00
2022-09-10T00:36:33.793Z,100.00
2022-09-10T00:39:03.590Z,100.00
2022-09-10T00:41:30.822Z,100.00
2022-09-10T00:44:02.689Z,100.00
2022-09-10T00:46:48.445Z,100.00
2022-09-10T00:49:37.246Z,100.00
2022-09-10T00:52:04.642Z,100.00
2022-09-10T00:54:33.709Z,100.00
2022-09-10T00:57:06.304Z,100.00
2022-09-10T00:59:34.024Z,100.00
2022-09-10T01:02:01.260Z,100.00
2022-09-10T01:04:28.919Z,100.00
2022-09-10T01:06:56.401Z,100.00
2022-09-10T01:09:24.277Z,100.00
2022-09-10T01:11:57.892Z,100.00
2022-09-10T01:14:49.834Z,100.00
2022-09-10T01:17:31.296Z,100.00
2022-09-10T01:20:24.088Z,100.00
2022-09-10T01:23:44.966Z,100.00
2022-09-10T01:26:49.156Z,100.00
2022-09-10T01:29:32.636Z,100.00
2022-09-10T01:32:20.725Z,100.00
2022-09-10T01:34:56.247Z,100.00
2022-09-10T01:37:28.828Z,100.00
2022-09-10T01:39:57.029Z,100.00
2022-09-10T01:42:27.865Z,100.00
2022-09-10T01:44:57.879Z,100.00
2022-09-10T01:48:02.156Z,100.00
2022-09-10T01:50:41.053Z,100.00
2022-09-10T01:53:33.454Z,100.00
2022-09-10T01:56:19.483Z,100.00
2022-09-10T01:58:47.006Z,100.00
2022-09-10T02:01:24.858Z,100.00
2022-09-10T02:03:56.946Z,100.00
2022-09-10T02:06:29.708Z,100.00
2022-09-10T02:08:58.721Z,100.00
2022-09-10T02:11:25.604Z,100.00
2022-09-10T02:13:52.392Z,100.00
2022-09-10T02:16:33.269Z,100.00
2022-09-10T02:19:02.127Z,100.00
2022-09-10T02:21:28.720Z,100.00
2022-09-10T02:23:59.426Z,100.00
2022-09-10T02:26:28.437Z,100.00
2022-09-10T02:28:55.211Z,100.00
2022-09-10T02:31:22.673Z,100.00
2022-09-10T02:33:49.199Z,100.00
2022-09-10T02:36:15.674Z,100.00
2022-09-10T02:38:42.207Z,100.00
2022-09-10T02:41:09.561Z,100.00
2022-09-10T02:43:38.397Z,100.00
2022-09-10T02:46:07.468Z,100.00
2022-09-10T02:48:34.038Z,100.00
2022-09-10T02:51:00.843Z,100.00
2022-09-10T02:53:27.486Z,100.00
2022-09-10T02:55:54.507Z,100.00
2022-09-10T02:58:21.089Z,100.00
2022-09-10T03:00:47.567Z,100.00
2022-09-10T03:03:14.474Z,100.00
2022-09-10T03:05:41.788Z,100.00
2022-09-10T03:08:09.439Z,100.00
2022-09-10T03:10:36.791Z,100.00
2022-09-10T03:13:03.542Z,100.00
2022-09-10T03:15:30.045Z,100.00
2022-09-10T03:17:56.462Z,100.00
2022-09-10T03:20:23.088Z,100.00
2022-09-10T03:22:51.580Z,100.00
2022-09-10T03:25:22.800Z,100.00
2022-09-10T03:27:49.383Z,100.00
2022-09-10T03:30:15.917Z,100.00
2022-09-10T03:32:43.245Z,100.00
2022-09-10T03:35:10.382Z,100.00
2022-09-10T03:37:37.020Z,100.00
2022-09-10T03:40:04.775Z,100.00
2022-09-10T03:42:31.626Z,100.00
2022-09-10T03:44:58.216Z,100.00
2022-09-10T03:47:25.195Z,100.00
2022-09-10T03:49:51.853Z,100.00
2022-09-10T03:52:18.759Z,100.00
2022-09-10T03:54:45.740Z,100.00
2022-09-10T03:57:12.388Z,100.00
2022-09-10T03:59:41.276Z,100.00
2022-09-10T04:02:09.521Z,100.00
2022-09-10T04:04:37.475Z,100.00
2022-09-10T04:07:04.791Z,100.00
2022-09-10T04:09:32.689Z,100.00
2022-09-10T04:12:00.098Z,100.00
2022-09-10T04:14:27.235Z,100.00
2022-09-10T04:16:54.516Z,100.00
2022-09-10T04:19:21.221Z,100.00
2022-09-10T04:21:48.548Z,100.00
2022-09-10T04:24:15.225Z,100.00
2022-09-10T04:26:41.822Z,100.00
2022-09-10T04:29:08.785Z,100.00
2022-09-10T04:31:35.495Z,100.00
2022-09-10T04:34:02.242Z,100.00
2022-09-10T04:36:29.587Z,100.00
2022-09-10T04:38:56.579Z,100.00
2022-09-10T04:41:23.371Z,100.00
2022-09-10T04:43:50.182Z,100.00
2022-09-10T04:46:17.756Z,100.00
2022-09-10T04:48:44.518Z,100.00
2022-09-10T04:51:17.439Z,100.00
2022-09-10T04:53:45.846Z,100.00
2022-09-10T04:56:12.805Z,100.00
2022-09-10T04:58:40.195Z,100.00
2022-09-10T05:01:07.656Z,100.00
2022-09-10T05:03:34.558Z,100.00
2022-09-10T05:06:01.560Z,100.00
2022-09-10T05:08:28.216Z,100.00
2022-09-10T05:10:55.196Z,100.00
2022-09-10T05:13:22.084Z,100.00
2022-09-10T05:15:49.292Z,100.00
2022-09-10T05:18:16.786Z,100.00
2022-09-10T05:20:44.864Z,100.00
2022-09-10T05:23:11.559Z,100.00
2022-09-10T05:25:38.237Z,100.00
2022-09-10T05:28:06.040Z,100.00
2022-09-10T05:30:32.969Z,100.00
2022-09-10T05:33:02.946Z,100.00
2022-09-10T05:35:30.431Z,100.00
2022-09-10T05:37:57.726Z,100.00
2022-09-10T05:40:25.547Z,100.00
2022-09-10T05:42:52.977Z,100.00
2022-09-10T05:45:20.493Z,100.00
2022-09-10T05:47:47.587Z,100.00
2022-09-10T05:50:14.700Z,100.00
2022-09-10T05:52:41.466Z,100.00
2022-09-10T05:55:08.432Z,100.00
2022-09-10T05:57:35.570Z,100.00
2022-09-10T06:00:08.611Z,100.00
2022-09-10T06:02:35.902Z,100.00
2022-09-10T06:05:02.667Z,100.00
2022-09-10T06:07:30.516Z,100.00
2022-09-10T06:10:03.089Z,100.00
2022-09-10T06:12:29.748Z,100.00
2022-09-10T06:14:56.536Z,100.00
2022-09-10T06:17:23.128Z,100.00
2022-09-10T06:19:51.972Z,100.00
2022-09-10T06:22:18.551Z,100.00
2022-09-10T06:24:47.991Z,100.00
2022-09-10T06:27:14.995Z,98.08
2022-09-10T06:29:41.537Z,99.93
2022-09-10T06:32:08.141Z,100.00
2022-09-10T06:34:35.996Z,99.93
2022-09-10T06:37:04.375Z,98.90
2022-09-10T06:39:31.239Z,96.67
2022-09-10T06:41:57.783Z,95.02
2022-09-10T06:44:24.326Z,94.63
2022-09-10T06:49:39.889Z,92.28
2022-09-10T06:52:06.363Z,91.15
2022-09-10T06:54:32.967Z,90.09
2022-09-10T06:57:01.444Z,88.93
2022-09-10T06:59:28.084Z,87.91
2022-09-10T07:01:55.371Z,88.67
2022-09-10T07:04:21.953Z,88.43
2022-09-10T07:06:48.636Z,88.32
2022-09-10T07:09:15.733Z,85.70
2022-09-10T07:11:42.452Z,85.56
2022-09-10T07:14:13.060Z,84.33
2022-09-10T07:16:44.565Z,83.40
2022-09-10T07:19:15.103Z,84.52
2022-09-10T07:21:41.827Z,86.14
2022-09-10T07:24:11.117Z,87.22
2022-09-10T07:26:37.877Z,86.72
2022-09-10T07:29:04.910Z,84.65
2022-09-10T07:31:35.990Z,82.63
2022-09-10T07:34:03.258Z,83.30
2022-09-10T07:36:30.860Z,81.66
2022-09-10T07:38:59.085Z,78.15
2022-09-10T07:41:29.594Z,74.97
2022-09-10T07:43:56.497Z,73.15
2022-09-10T07:46:25.701Z,71.90
2022-09-10T07:49:00.423Z,71.42
2022-09-10T07:51:29.578Z,73.42
2022-09-10T07:53:58.328Z,77.29
2022-09-10T07:56:26.091Z,79.05
2022-09-10T07:58:54.018Z,79.14
2022-09-10T08:01:20.984Z,79.29
2022-09-10T08:03:47.571Z,79.40
2022-09-10T08:06:14.648Z,77.50
2022-09-10T08:08:42.760Z,77.59
2022-09-10T08:11:12.802Z,77.37
2022-09-10T08:13:45.099Z,78.43
2022-09-10T08:16:14.846Z,80.44
2022-09-10T08:18:43.185Z,79.84
2022-09-10T08:21:10.891Z,80.07
2022-09-10T08:23:39.816Z,81.34
2022-09-10T08:26:08.241Z,81.69
2022-09-10T08:28:35.655Z,82.01
2022-09-10T08:31:07.741Z,78.15
2022-09-10T08:33:36.310Z,74.92
2022-09-10T08:36:04.834Z,74.02
2022-09-10T08:38:42.276Z,71.39
2022-09-10T08:41:13.892Z,73.21
2022-09-10T08:43:55.941Z,75.10
2022-09-10T08:46:25.790Z,74.29
2022-09-10T08:49:11.756Z,75.64
2022-09-10T08:51:46.769Z,75.97
2022-09-10T08:54:38.248Z,76.13
2022-09-10T08:57:11.890Z,75.69
2022-09-10T08:59:45.511Z,75.49
2022-09-10T09:02:47.377Z,75.21
2022-09-10T09:05:19.493Z,75.80
2022-09-10T09:07:48.502Z,76.03
2022-09-10T09:10:54.326Z,76.48
2022-09-10T09:13:33.056Z,77.80
2022-09-10T09:16:11.672Z,77.92
2022-09-10T09:19:02.305Z,81.84
2022-09-10T09:22:07.267Z,83.47
2022-09-10T09:24:57.949Z,84.75
2022-09-10T09:27:29.858Z,83.64
2022-09-10T09:29:59.462Z,83.01
2022-09-10T09:32:28.742Z,82.28
2022-09-10T09:35:05.487Z,81.71
2022-09-10T09:37:34.666Z,78.88
2022-09-10T09:40:15.216Z,78.53
2022-09-10T09:42:50.059Z,77.39
2022-09-10T09:45:23.504Z,76.66
2022-09-10T09:47:50.983Z,76.16
2022-09-10T09:50:20.728Z,75.85
2022-09-10T09:52:47.922Z,76.38
2022-09-10T09:55:43.724Z,76.57
2022-09-10T09:58:22.275Z,76.18
2022-09-10T10:00:53.153Z,75.82
2022-09-10T10:03:25.661Z,74.14
2022-09-10T10:06:02.435Z,73.73
2022-09-10T10:08:34.181Z,73.93
2022-09-10T10:11:01.628Z,74.38
2022-09-10T10:13:40.079Z,72.98
2022-09-10T10:16:38.068Z,73.57
2022-09-10T10:19:34.315Z,73.08
2022-09-10T10:22:19.567Z,72.69
2022-09-10T10:24:49.262Z,71.79
2022-09-10T10:27:43.115Z,70.39
2022-09-10T10:30:13.099Z,68.34
2022-09-10T10:32:44.924Z,65.73
2022-09-10T10:35:20.362Z,64.21
2022-09-10T10:38:17.447Z,62.37
2022-09-10T10:41:17.121Z,62.08
2022-09-10T10:44:13.392Z,62.79
2022-09-10T10:46:54.108Z,62.91
2022-09-10T10:49:26.995Z,64.97
2022-09-10T10:52:04.178Z,66.79
2022-09-10T10:55:02.264Z,69.11
2022-09-10T10:58:14.341Z,71.74
2022-09-10T11:00:57.815Z,74.84
2022-09-10T11:03:57.419Z,83.92
2022-09-10T11:06:29.296Z,90.04
2022-09-10T11:08:59.582Z,95.98
2022-09-10T11:11:55.363Z,99.41
2022-09-10T11:14:36.186Z,100.00
2022-09-10T11:17:10.416Z,100.00
2022-09-10T11:19:53.333Z,100.00
2022-09-10T11:22:45.453Z,100.00
2022-09-10T11:25:22.862Z,100.00
2022-09-10T11:27:55.422Z,100.00
2022-09-10T11:30:22.436Z,100.00
2022-09-10T11:33:11.426Z,100.00
2022-09-10T11:35:44.549Z,100.00
2022-09-10T11:38:29.226Z,100.00
2022-09-10T11:41:03.940Z,100.00
2022-09-10T11:43:50.380Z,100.00
2022-09-10T11:46:23.660Z,99.71
2022-09-10T11:48:55.410Z,97.50
2022-09-10T11:51:28.133Z,93.98
2022-09-10T11:53:55.150Z,93.36
2022-09-10T11:56:35.399Z,85.04
2022-09-10T11:59:17.160Z,84.80
2022-09-10T12:02:07.947Z,84.77
2022-09-10T12:04:57.883Z,80.60
2022-09-10T12:07:33.669Z,83.53
2022-09-10T12:10:18.632Z,84.76
2022-09-10T12:12:49.211Z,85.00
2022-09-10T12:15:34.232Z,84.70
2022-09-10T12:18:14.847Z,82.58
2022-09-10T12:21:08.821Z,82.40
2022-09-10T12:23:40.012Z,82.12
2022-09-10T12:26:11.594Z,79.30
2022-09-10T12:28:53.193Z,78.40
2022-09-10T12:31:21.732Z,75.58
2022-09-10T12:33:48.376Z,76.89
2022-09-10T12:36:34.931Z,78.48
2022-09-10T12:39:28.504Z,75.49
2022-09-10T12:42:01.783Z,74.61
2022-09-10T12:44:34.456Z,73.64
2022-09-10T12:47:16.258Z,74.03
2022-09-10T12:50:04.656Z,76.62
2022-09-10T12:52:51.052Z,77.19
2022-09-10T12:55:36.249Z,78.24
2022-09-10T12:58:03.321Z,77.74
2022-09-10T13:00:50.717Z,79.24
2022-09-10T13:03:20.165Z,78.85
2022-09-10T13:05:47.701Z,79.42
2022-09-10T13:08:47.848Z,78.27
2022-09-10T13:11:22.747Z,77.46
2022-09-10T13:13:50.145Z,76.89
2022-09-10T13:16:41.514Z,78.03
2022-09-10T13:19:14.095Z,77.98
2022-09-10T13:21:40.772Z,77.93
2022-09-10T13:24:36.423Z,75.61
2022-09-10T13:27:17.962Z,75.22
2022-09-10T13:29:54.859Z,73.65
2022-09-10T13:32:34.629Z,74.92
2022-09-10T13:35:17.057Z,75.34
2022-09-10T13:38:02.825Z,76.02
2022-09-10T13:41:06.887Z,76.96
2022-09-10T13:43:48.822Z,76.93
2022-09-10T13:46:31.216Z,77.97
2022-09-10T13:49:10.035Z,78.37
2022-09-10T13:51:47.787Z,79.00
2022-09-10T13:54:30.171Z,78.69
2022-09-10T13:57:03.343Z,79.23
2022-09-10T13:59:33.415Z,79.32
2022-09-10T14:01:59.975Z,79.62
2022-09-10T14:04:28.226Z,80.68
2022-09-10T14:07:03.417Z,81.61
2022-09-10T14:09:32.597Z,83.16
2022-09-10T14:12:03.674Z,84.13
2022-09-10T14:14:35.348Z,84.43
2022-09-10T14:17:10.406Z,88.67
2022-09-10T14:19:52.615Z,92.99
2022-09-10T14:22:26.100Z,92.05
2022-09-10T14:24:55.583Z,92.59
2022-09-10T14:27:32.725Z,90.79
2022-09-10T14:30:18.490Z,88.41
2022-09-10T14:32:46.333Z,87.60
2022-09-10T14:35:39.269Z,86.72
2022-09-10T14:38:31.648Z,86.57
2022-09-10T14:41:04.329Z,84.58
2022-09-10T14:43:39.085Z,83.11
2022-09-10T14:46:11.740Z,83.54
2022-09-10T14:48:39.500Z,84.62
2022-09-10T14:51:12.835Z,85.56
2022-09-10T14:53:41.445Z,87.62
2022-09-10T14:56:44.328Z,89.03
2022-09-10T14:59:31.210Z,89.23
2022-09-10T15:02:00.873Z,89.51
2022-09-10T15:04:30.315Z,90.59
2022-09-10T15:07:00.661Z,90.58
2022-09-10T15:09:28.649Z,89.87
2022-09-10T15:12:26.175Z,89.74
2022-09-10T15:14:52.629Z,90.27
2022-09-10T15:17:19.591Z,90.95
2022-09-10T15:19:50.124Z,90.74
2022-09-10T15:22:23.564Z,90.48
2022-09-10T15:25:09.008Z,90.95
2022-09-10T15:27:37.105Z,92.53
2022-09-10T15:30:05.422Z,91.98
2022-09-10T15:32:31.989Z,92.02
2022-09-10T15:34:59.119Z,91.80
2022-09-10T15:37:25.815Z,92.40
2022-09-10T15:39:53.976Z,92.43
2022-09-10T15:42:21.213Z,92.75
2022-09-10T15:44:47.809Z,93.07
2022-09-10T15:47:15.023Z,92.06
2022-09-10T15:49:41.707Z,91.92
2022-09-10T15:52:08.476Z,92.09
2022-09-10T15:54:35.146Z,92.23
2022-09-10T15:57:01.695Z,92.96
2022-09-10T15:59:28.603Z,93.35
2022-09-10T16:01:55.258Z,92.51
2022-09-10T16:04:21.970Z,92.81
2022-09-10T16:06:48.503Z,93.09
2022-09-10T16:09:15.235Z,94.04
2022-09-10T16:11:42.874Z,94.63
2022-09-10T16:14:12.787Z,94.14
2022-09-10T16:16:41.091Z,94.26
2022-09-10T16:19:09.292Z,95.62
2022-09-10T16:21:37.549Z,95.08
2022-09-10T16:24:06.153Z,96.21
2022-09-10T16:26:35.922Z,96.66
2022-09-10T16:29:06.518Z,96.31
2022-09-10T16:31:39.149Z,96.06
2022-09-10T16:34:08.919Z,96.24
2022-09-10T16:36:37.232Z,96.48
2022-09-10T16:39:07.396Z,96.93
2022-09-10T16:41:34.060Z,97.05
2022-09-10T16:44:00.950Z,97.34
2022-09-10T16:46:28.265Z,97.29
2022-09-10T16:48:55.969Z,97.21
2022-09-10T16:51:24.671Z,97.53
2022-09-10T16:54:02.509Z,98.81
2022-09-10T16:56:38.644Z,99.62
2022-09-10T16:59:09.772Z,98.77
2022-09-10T17:01:37.623Z,99.84
2022-09-10T17:04:07.624Z,100.00
2022-09-10T17:06:35.220Z,100.00
2022-09-10T17:09:02.635Z,99.44
2022-09-10T17:11:32.323Z,100.00
2022-09-10T17:14:01.827Z,100.00
2022-09-10T17:16:33.691Z,100.00
2022-09-10T17:19:03.654Z,100.00
2022-09-10T17:21:32.287Z,100.00
2022-09-10T17:23:59.564Z,100.00
2022-09-10T17:26:27.221Z,100.00
2022-09-10T17:28:56.063Z,100.00
2022-09-10T17:31:23.555Z,100.00
2022-09-10T17:33:50.711Z,100.00
2022-09-10T17:36:17.855Z,100.00
2022-09-10T17:38:45.059Z,100.00
2022-09-10T17:41:14.600Z,100.00
2022-09-10T17:43:43.514Z,100.00
2022-09-10T17:46:12.458Z,100.00
2022-09-10T17:48:39.283Z,100.00
2022-09-10T17:51:07.280Z,100.00
2022-09-10T17:53:34.826Z,100.00
2022-09-10T17:56:06.099Z,100.00
2022-09-10T17:58:33.409Z,100.00
2022-09-10T18:01:03.257Z,100.00
2022-09-10T18:03:30.277Z,100.00
2022-09-10T18:05:57.296Z,100.00
2022-09-10T18:08:23.966Z,100.00
2022-09-10T18:10:50.885Z,100.00
2022-09-10T18:13:19.533Z,100.00
2022-09-10T18:15:49.404Z,100.00
2022-09-10T18:18:16.009Z,100.00
2022-09-10T18:20:43.026Z,100.00
2022-09-10T18:23:09.800Z,100.00
2022-09-10T18:25:36.473Z,100.00
2022-09-10T18:28:03.193Z,100.00
2022-09-10T18:30:29.952Z,100.00
2022-09-10T18:32:56.406Z,100.00
2022-09-10T18:35:23.129Z,100.00
2022-09-10T18:37:52.517Z,100.00
2022-09-10T18:40:19.729Z,100.00
2022-09-10T18:42:47.915Z,100.00
2022-09-10T18:45:14.983Z,100.00
2022-09-10T18:47:45.386Z,100.00
2022-09-10T18:50:13.409Z,100.00
2022-09-10T18:52:40.230Z,100.00
2022-09-10T18:55:07.301Z,100.00
2022-09-10T18:57:33.918Z,100.00
2022-09-10T19:00:00.427Z,100.00
2022-09-10T19:02:27.194Z,100.00
2022-09-10T19:05:10.593Z,100.00
2022-09-10T19:07:38.386Z,100.00
2022-09-10T19:10:07.181Z,100.00
2022-09-10T19:12:33.939Z,100.00
2022-09-10T19:15:00.575Z,100.00
2022-09-10T19:17:27.117Z,100.00
2022-09-10T19:19:53.803Z,100.00
2022-09-10T19:22:20.541Z,100.00
2022-09-10T19:24:55.719Z,100.00
2022-09-10T19:27:23.620Z,100.00
2022-09-10T19:29:50.543Z,100.00
2022-09-10T19:32:19.704Z,100.00
2022-09-10T19:34:49.689Z,100.00
2022-09-10T19:37:17.265Z,100.00
2022-09-10T19:39:44.793Z,100.00
2022-09-10T19:42:12.746Z,100.00
2022-09-10T19:44:39.415Z,100.00
2022-09-10T19:47:06.110Z,100.00
2022-09-10T19:49:34.187Z,100.00
2022-09-10T19:52:00.923Z,100.00
2022-09-10T19:54:28.607Z,100.00
2022-09-10T19:56:56.591Z,100.00
2022-09-10T19:59:23.292Z,100.00
2022-09-10T20:01:49.979Z,100.00
2022-09-10T20:04:16.911Z,100.00
2022-09-10T20:06:45.863Z,100.00
2022-09-10T20:09:12.479Z,100.00
2022-09-10T20:11:39.071Z,100.00
2022-09-10T20:14:08.608Z,100.00
2022-09-10T20:16:40.191Z,100.00
2022-09-10T20:19:07.199Z,100.00
2022-09-10T20:21:35.120Z,100.00
2022-09-10T20:24:01.821Z,100.00
2022-09-10T20:26:33.455Z,100.00
2022-09-10T20:29:03.994Z,100.00
2022-09-10T20:31:32.719Z,100.00
2022-09-10T20:34:03.473Z,100.00
2022-09-10T20:36:31.420Z,100.00
2022-09-10T20:38:58.553Z,100.00
2022-09-10T20:41:30.097Z,100.00
2022-09-10T20:43:58.808Z,100.00
2022-09-10T20:46:27.289Z,100.00
2022-09-10T20:48:54.261Z,100.00
2022-09-10T20:51:21.368Z,100.00
2022-09-10T20:53:48.550Z,100.00
2022-09-10T20:56:18.492Z,100.00
2022-09-10T20:58:46.586Z,100.00
2022-09-10T21:01:16.872Z,100.00
2022-09-10T21:03:43.587Z,100.00
2022-09-10T21:06:11.822Z,100.00
2022-09-10T21:08:39.838Z,100.00
2022-09-10T21:11:12.412Z,100.00
2022-09-10T21:13:47.604Z,100.00
2022-09-10T21:16:17.220Z,100.00
2022-09-10T21:18:53.584Z,100.00
2022-09-10T21:21:23.644Z,100.00
2022-09-10T21:23:52.016Z,100.00
2022-09-10T21:26:21.035Z,100.00
2022-09-10T21:28:48.587Z,100.00
2022-09-10T21:31:15.260Z,100.00
2022-09-10T21:33:43.468Z,100.00
2022-09-10T21:36:18.725Z,100.00
2022-09-10T21:38:56.412Z,100.00
2022-09-10T21:41:31.219Z,100.00
2022-09-10T21:43:58.686Z,100.00
2022-09-10T21:46:25.513Z,100.00
2022-09-10T21:48:52.360Z,100.00
2022-09-10T21:51:20.361Z,100.00
2022-09-10T21:53:47.764Z,100.00
2022-09-10T21:56:16.739Z,100.00
2022-09-10T21:58:45.650Z,100.00
2022-09-10T22:01:14.874Z,100.00
2022-09-10T22:03:41.852Z,100.00
2022-09-10T22:06:15.706Z,100.00
2022-09-10T22:08:44.999Z,100.00
2022-09-10T22:11:17.122Z,100.00
2022-09-10T22:13:45.424Z,100.00
2022-09-10T22:16:12.775Z,100.00
2022-09-10T22:18:40.023Z,100.00
2022-09-10T22:21:06.878Z,100.00
2022-09-10T22:23:38.124Z,100.00
2022-09-10T22:26:13.473Z,100.00
2022-09-10T22:28:40.576Z,100.00
2022-09-10T22:31:19.182Z,100.00
2022-09-10T22:33:50.908Z,100.00
2022-09-10T22:36:18.867Z,100.00
2022-09-10T22:38:50.513Z,100.00
2022-09-10T22:41:17.371Z,100.00
2022-09-10T22:43:43.956Z,100.00
2022-09-10T22:46:11.045Z,100.00
2022-09-10T22:48:40.095Z,100.00
2022-09-10T22:51:08.629Z,100.00
2022-09-10T22:53:35.467Z,100.00
2022-09-10T22:56:02.513Z,100.00
2022-09-10T22:58:29.251Z,100.00
2022-09-10T23:00:56.365Z,100.00
2022-09-10T23:03:23.219Z,100.00
2022-09-10T23:05:49.848Z,100.00
2022-09-10T23:08:17.122Z,100.00
2022-09-10T23:10:43.815Z,100.00
2022-09-10T23:13:10.613Z,100.00
2022-09-10T23:15:37.335Z,100.00
2022-09-10T23:18:03.849Z,100.00
2022-09-10T23:20:30.348Z,100.00
2022-09-10T23:22:56.897Z,100.00
2022-09-10T23:25:23.466Z,100.00
2022-09-10T23:27:51.290Z,100.00
2022-09-10T23:30:18.176Z,100.00
2022-09-10T23:32:45.420Z,100.00
2022-09-10T23:35:12.120Z,100.00
2022-09-10T23:37:38.716Z,100.00
2022-09-10T23:40:06.751Z,100.00
2022-09-10T23:42:35.077Z,100.00
2022-09-10T23:45:01.766Z,100.00
2022-09-10T23:47:28.351Z,100.00
2022-09-10T23:49:54.991Z,100.00
2022-09-10T23:52:21.872Z,100.00
2022-09-10T23:54:49.092Z,100.00
2022-09-10T23:57:15.749Z,100.00
2022-09-10T23:59:42.431Z,100.00
